Terminal Aerodrome Forecast
Issued by NWS Cleveland, OH

Home | Current Version | Previous Version | Graphics & Text | Print | Product List | Glossary Off
Versions: 1 2 3 4 5 6 7 8 9 10 11 12 13 14 15 16 17 18 19 20

375
FTUS41 KCLE 210213 AAA
TAFERI
TAF AMD
KERI 210213Z 2102/2124 19014G22KT P6SM OVC200
     FM211200 22014G22KT 5SM -SHRA OVC025
     FM211600 29014G22KT 3SM -SHRA OVC007
     FM212100 34010KT P6SM VCSH SCT012 OVC020=

USA.gov is the U.S. government's official web portal to all federal, state and local government web resources and services.